createdAt,value
2022-10-07T00:01:36.042Z,99.90
2022-10-07T00:06:34.065Z,99.90
2022-10-07T00:11:32.053Z,99.90
2022-10-07T00:16:32.026Z,99.90
2022-10-07T00:21:33.251Z,99.90
2022-10-07T00:26:33.347Z,99.90
2022-10-07T00:31:33.001Z,99.90
2022-10-07T00:36:36.721Z,99.90
2022-10-07T00:41:37.341Z,99.90
2022-10-07T00:46:38.729Z,99.90
2022-10-07T00:51:38.694Z,99.90
2022-10-07T00:56:36.956Z,99.90
2022-10-07T01:01:35.704Z,99.90
2022-10-07T01:06:34.695Z,99.90
2022-10-07T01:11:47.998Z,99.90
2022-10-07T01:16:55.344Z,99.90
2022-10-07T01:22:03.901Z,99.90
2022-10-07T01:27:06.926Z,99.90
2022-10-07T01:32:09.276Z,99.90
2022-10-07T01:37:11.831Z,99.90
2022-10-07T01:42:12.283Z,99.90
2022-10-07T01:47:10.187Z,99.90
2022-10-07T01:52:25.415Z,99.90
2022-10-07T01:57:37.808Z,99.90
2022-10-07T02:02:59.586Z,99.90
2022-10-07T02:08:12.887Z,99.90
2022-10-07T02:13:21.346Z,99.90
2022-10-07T02:18:21.424Z,99.90
2022-10-07T02:23:22.106Z,99.90
2022-10-07T02:28:24.671Z,99.90
2022-10-07T02:33:27.716Z,99.90
2022-10-07T02:38:27.247Z,99.90
2022-10-07T02:43:32.120Z,99.90
2022-10-07T02:48:34.023Z,99.90
2022-10-07T02:53:34.293Z,99.90
2022-10-07T02:58:36.630Z,99.90
2022-10-07T03:03:34.672Z,99.90
2022-10-07T03:08:35.810Z,99.90
2022-10-07T03:13:35.399Z,99.90
2022-10-07T03:18:34.467Z,99.90
2022-10-07T03:23:56.088Z,99.90
2022-10-07T03:29:01.189Z,99.90
2022-10-07T03:33:59.907Z,99.90
2022-10-07T03:38:58.985Z,99.90
2022-10-07T03:43:59.091Z,99.90
2022-10-07T03:48:59.686Z,99.90
2022-10-07T03:54:05.464Z,99.90
2022-10-07T03:59:05.408Z,99.90
2022-10-07T04:04:04.992Z,99.90
2022-10-07T04:09:06.658Z,99.90
2022-10-07T04:14:09.147Z,99.90
2022-10-07T04:19:08.644Z,99.90
2022-10-07T04:24:06.954Z,99.90
2022-10-07T04:29:06.881Z,99.90
2022-10-07T04:34:05.695Z,99.90
2022-10-07T04:39:08.898Z,99.90
2022-10-07T04:44:11.923Z,99.90
2022-10-07T04:49:18.098Z,99.90
2022-10-07T04:54:17.684Z,99.90
2022-10-07T04:59:23.466Z,99.90
2022-10-07T05:04:22.511Z,99.90
2022-10-07T05:09:23.789Z,99.90
2022-10-07T05:14:22.310Z,99.90
2022-10-07T05:19:22.205Z,99.90
2022-10-07T05:24:20.586Z,99.90
2022-10-07T05:29:20.672Z,99.90
2022-10-07T05:34:22.338Z,99.90
2022-10-07T05:39:20.574Z,99.90
2022-10-07T05:44:23.273Z,99.90
2022-10-07T05:49:23.589Z,99.90
2022-10-07T05:54:22.437Z,99.90
2022-10-07T05:59:20.666Z,99.90
2022-10-07T06:04:21.134Z,99.90
2022-10-07T06:09:39.986Z,99.90
2022-10-07T06:14:44.294Z,99.90
2022-10-07T06:19:43.735Z,99.90
2022-10-07T06:24:41.873Z,99.90
2022-10-07T06:29:40.911Z,99.90
2022-10-07T06:34:39.555Z,99.90
2022-10-07T06:39:39.121Z,99.90
2022-10-07T06:44:37.202Z,99.90
2022-10-07T06:49:36.525Z,99.90
2022-10-07T06:54:35.128Z,99.90
2022-10-07T06:59:34.739Z,99.90
2022-10-07T07:04:40.193Z,99.90
2022-10-07T07:09:38.746Z,99.90
2022-10-07T07:14:40.354Z,99.90
2022-10-07T07:19:43.790Z,99.90
2022-10-07T07:24:41.825Z,99.90
2022-10-07T07:29:42.183Z,99.90
2022-10-07T07:34:40.370Z,99.90
2022-10-07T07:39:42.731Z,99.90
2022-10-07T07:44:45.916Z,99.90
2022-10-07T07:49:47.378Z,99.90
2022-10-07T07:54:52.709Z,99.90
2022-10-07T07:59:52.498Z,99.90
2022-10-07T08:04:50.865Z,99.90
2022-10-07T08:09:50.327Z,99.90
2022-10-07T08:14:48.495Z,99.90
2022-10-07T08:19:48.433Z,99.90
2022-10-07T08:24:46.991Z,99.90
2022-10-07T08:29:46.205Z,99.90
2022-10-07T08:34:44.226Z,99.90
2022-10-07T08:39:43.554Z,99.90
2022-10-07T08:44:43.831Z,99.90
2022-10-07T08:49:54.429Z,99.90
2022-10-07T08:54:54.211Z,99.90
2022-10-07T08:59:59.187Z,99.90
2022-10-07T09:05:06.308Z,99.90
2022-10-07T09:10:21.399Z,99.90
2022-10-07T09:15:25.216Z,99.90
2022-10-07T09:20:35.718Z,99.90
2022-10-07T09:25:35.093Z,99.90
2022-10-07T09:30:34.331Z,99.90
2022-10-07T09:35:32.530Z,99.80
2022-10-07T09:40:58.251Z,98.20
2022-10-07T09:45:58.053Z,94.50
2022-10-07T09:51:15.052Z,84.30
2022-10-07T09:56:31.865Z,79.30
2022-10-07T10:01:31.055Z,70.30
2022-10-07T10:06:29.903Z,63.40
2022-10-07T10:11:29.412Z,60.90
2022-10-07T10:16:36.083Z,61.10
2022-10-07T10:21:36.836Z,57.60
2022-10-07T10:26:53.869Z,55.40
2022-10-07T10:32:13.173Z,55.00
2022-10-07T10:37:18.263Z,55.20
2022-10-07T10:42:22.767Z,53.90
2022-10-07T10:47:30.678Z,52.50
2022-10-07T10:52:45.462Z,51.20
2022-10-07T10:58:00.061Z,50.30
2022-10-07T11:03:35.342Z,48.80
2022-10-07T11:08:38.326Z,46.10
2022-10-07T11:13:46.712Z,46.20
2022-10-07T11:18:49.278Z,45.80
2022-10-07T11:23:53.719Z,47.00
2022-10-07T11:29:05.015Z,48.60
2022-10-07T11:34:16.923Z,51.50
2022-10-07T11:39:14.937Z,53.70
2022-10-07T11:44:21.608Z,55.20
2022-10-07T11:49:23.538Z,56.50
2022-10-07T11:54:24.011Z,57.00
2022-10-07T11:59:38.135Z,58.20
2022-10-07T12:04:39.355Z,58.30
2022-10-07T12:10:18.054Z,58.80
2022-10-07T12:15:34.437Z,59.30
2022-10-07T12:20:46.950Z,59.20
2022-10-07T12:25:47.021Z,58.90
2022-10-07T12:30:53.657Z,60.20
2022-10-07T12:35:54.612Z,62.70
2022-10-07T12:41:24.809Z,65.20
2022-10-07T12:46:26.977Z,66.20
2022-10-07T12:51:29.196Z,67.60
2022-10-07T12:56:30.872Z,65.90
2022-10-07T13:01:43.523Z,67.80
2022-10-07T13:07:36.024Z,65.30
2022-10-07T13:12:43.628Z,66.60
2022-10-07T13:17:50.106Z,66.60
2022-10-07T13:22:48.889Z,67.50
2022-10-07T13:27:53.084Z,68.50
2022-10-07T13:32:52.401Z,66.10
2022-10-07T13:37:51.241Z,66.40
2022-10-07T13:42:55.073Z,66.80
2022-10-07T13:47:55.015Z,66.80
2022-10-07T13:52:55.848Z,68.00
2022-10-07T13:57:57.589Z,66.10
2022-10-07T14:02:58.128Z,66.90
2022-10-07T14:07:58.097Z,66.00
2022-10-07T14:12:59.892Z,66.10
2022-10-07T14:18:07.168Z,67.30
2022-10-07T14:23:07.110Z,68.30
2022-10-07T14:28:17.865Z,67.60
2022-10-07T14:33:37.414Z,66.70
2022-10-07T14:38:35.475Z,66.50
2022-10-07T14:43:35.053Z,66.00
2022-10-07T14:48:34.395Z,64.80
2022-10-07T14:53:33.122Z,60.70
2022-10-07T14:58:31.398Z,58.80
2022-10-07T15:03:30.857Z,57.70
2022-10-07T15:08:31.131Z,54.20
2022-10-07T15:13:29.149Z,53.20
2022-10-07T15:18:27.024Z,51.40
2022-10-07T15:23:24.974Z,49.70
2022-10-07T15:28:24.307Z,48.90
2022-10-07T15:33:22.265Z,49.60
2022-10-07T15:38:20.151Z,50.30
2022-10-07T15:43:18.026Z,49.40
2022-10-07T15:48:17.350Z,51.20
2022-10-07T15:53:15.988Z,53.30
2022-10-07T15:58:14.234Z,54.80
2022-10-07T16:03:12.360Z,56.10
2022-10-07T16:08:11.671Z,57.10
2022-10-07T16:13:09.634Z,58.10
2022-10-07T16:18:07.694Z,58.80
2022-10-07T16:23:05.716Z,59.70
2022-10-07T16:28:22.428Z,61.50
2022-10-07T16:33:20.414Z,63.10
2022-10-07T16:38:18.659Z,64.40
2022-10-07T16:43:17.947Z,66.70
2022-10-07T16:48:17.360Z,69.50
2022-10-07T16:53:15.258Z,69.10
2022-10-07T16:58:13.252Z,72.40
2022-10-07T17:03:12.501Z,72.50
2022-10-07T17:08:11.580Z,74.40
2022-10-07T17:13:09.519Z,75.20
2022-10-07T17:18:07.525Z,76.50
2022-10-07T17:23:07.783Z,79.40
2022-10-07T17:28:05.843Z,79.30
2022-10-07T17:33:03.945Z,82.30
2022-10-07T17:38:01.957Z,82.00
2022-10-07T17:43:04.348Z,82.50
2022-10-07T17:48:03.444Z,84.10
2022-10-07T17:53:01.437Z,88.70
2022-10-07T17:58:00.707Z,87.20
2022-10-07T18:02:58.604Z,88.20
2022-10-07T18:07:58.268Z,90.00
2022-10-07T18:13:13.817Z,91.00
2022-10-07T18:18:13.138Z,92.10
2022-10-07T18:23:11.131Z,92.50
2022-10-07T18:28:09.102Z,93.20
2022-10-07T18:33:07.222Z,94.20
2022-10-07T18:38:06.627Z,94.90
2022-10-07T18:43:04.667Z,95.10
2022-10-07T18:48:02.662Z,96.60
2022-10-07T18:53:01.008Z,96.80
2022-10-07T18:58:01.369Z,97.20
2022-10-07T19:02:59.519Z,97.90
2022-10-07T19:07:57.488Z,97.90
2022-10-07T19:13:17.170Z,97.90
2022-10-07T19:18:19.906Z,99.20
2022-10-07T19:23:17.884Z,99.90
2022-10-07T19:28:16.146Z,99.90
2022-10-07T19:33:14.282Z,99.90
2022-10-07T19:38:14.047Z,99.90
2022-10-07T19:43:12.821Z,99.90
2022-10-07T19:48:14.351Z,99.90
2022-10-07T19:53:15.492Z,99.90
2022-10-07T19:58:13.895Z,99.90
2022-10-07T20:03:12.020Z,99.90
2022-10-07T20:08:10.450Z,99.90
2022-10-07T20:13:09.899Z,99.90
2022-10-07T20:18:09.039Z,99.90
2022-10-07T20:23:10.637Z,99.90
2022-10-07T20:28:10.074Z,99.90
2022-10-07T20:33:08.152Z,99.90
2022-10-07T20:38:06.259Z,99.90
2022-10-07T20:43:03.419Z,99.90
2022-10-07T20:48:02.845Z,99.90
2022-10-07T20:53:00.902Z,99.90
2022-10-07T20:57:58.909Z,99.90
2022-10-07T21:02:57.064Z,99.90
2022-10-07T21:07:56.547Z,99.90
2022-10-07T21:12:54.462Z,99.90
2022-10-07T21:17:52.434Z,99.90
2022-10-07T21:22:52.078Z,99.90
2022-10-07T21:27:51.438Z,99.90
2022-10-07T21:32:50.129Z,99.90
2022-10-07T21:37:48.218Z,99.90
2022-10-07T21:42:46.533Z,99.90
2022-10-07T21:47:46.004Z,99.90
2022-10-07T21:52:44.384Z,99.90
2022-10-07T21:57:42.658Z,99.90
2022-10-07T22:02:40.909Z,99.90
2022-10-07T22:07:57.636Z,99.90
2022-10-07T22:12:55.635Z,99.90
2022-10-07T22:17:55.741Z,99.90
2022-10-07T22:22:59.747Z,99.90
2022-10-07T22:27:58.292Z,99.90
2022-10-07T22:32:56.647Z,99.90
2022-10-07T22:37:58.372Z,99.90
2022-10-07T22:42:56.568Z,99.90
2022-10-07T22:47:54.738Z,99.90
2022-10-07T22:52:53.474Z,99.90
2022-10-07T22:57:53.825Z,99.90
2022-10-07T23:02:54.770Z,99.90
2022-10-07T23:07:52.909Z,99.90
2022-10-07T23:12:50.944Z,99.90
2022-10-07T23:17:50.544Z,99.90
2022-10-07T23:22:49.236Z,99.90
2022-10-07T23:27:48.104Z,99.90
2022-10-07T23:32:47.116Z,99.90
2022-10-07T23:37:46.753Z,99.90
2022-10-07T23:42:45.162Z,99.90
2022-10-07T23:47:43.967Z,99.90
2022-10-07T23:52:42.231Z,99.90
2022-10-07T23:57:41.820Z,99.90
